• Join FlightAware (Why Join?)
  • Login
  • US Flag 
03:47PM EDT


 

Airport Tracker/Info


-or-


 

Live Flight TrackerFlight Track Log ✈ EJA583 ✈ 16-Nov-2013 ✈ KSAV - KCSG

Flight Track Log - Related Links

Times and Time Zones

All times are in EST time to prevent confusion due to time zone crossing. See the EJA583 flight status page for this flight to view local times or setup timezone preferences in your user account.

Time Position Orientation Groundspeed Altitude Reporting Facility
EST Latitude Longitude Course Direction KTS MPH feet Rate Location/Type
04:37PM 32.1765 -81.6185 285° West  Level Estimated
04:38PM 32.2096 -81.7161 292° West  Level FlightAware Approximate
04:39PM 32.2209 -81.8204 287° West  Level Estimated
04:40PM 32.2550 -81.9175 293° West  Level FlightAware Approximate
04:41PM 32.2653 -82.0220 285° West  Level Estimated
04:42PM 32.2926 -82.1222 288° West  Level FlightAware Approximate
04:43PM 32.3198 -82.2224 288° West  Level FlightAware Approximate
04:44PM 32.3470 -82.3227 288° West  Level FlightAware Approximate
04:45PM 32.3740 -82.4230 288° West  Level FlightAware Approximate
04:46PM 32.4010 -82.5234 288° West  Level FlightAware Approximate
04:47PM 32.4279 -82.6238 288° West  Level FlightAware Approximate
04:48PM 32.4548 -82.7243 288° West  Level FlightAware Approximate
04:49PM 32.4815 -82.8249 288° West  Level FlightAware Approximate
04:50PM 32.5082 -82.9256 287° West  Level FlightAware Approximate
04:51PM 32.5348 -83.0262 287° West  Level FlightAware Approximate
04:52PM 32.5345 -83.1318 283° West  Level Estimated
04:53PM 32.5342 -83.2373 270° West  Level Estimated
04:54PM 32.5337 -83.3428 266° West  Level Estimated
04:55PM 32.5543 -83.4455 283° West  Level FlightAware Approximate
04:56PM 32.5747 -83.5483 283° West  Level FlightAware Approximate
04:57PM 32.5708 -83.6538 264° West  Level Estimated
04:58PM 32.5857 -83.7579 280° West  Level FlightAware Approximate
04:59PM 32.5799 -83.8632 270° West  Level Estimated
05:00PM 32.5741 -83.9686 262° West  Level Estimated
05:01PM 32.5682 -84.0739 270° West  Level Estimated
05:02PM 32.5799 -84.1786 278° West  Level FlightAware Approximate
05:03PM 32.5714 -84.2837 264° West  Level Estimated
05:04PM 32.5796 -84.3888 275° West  Level FlightAware Approximate
05:05PM 32.5677 -84.4935 270° West  Level Estimated
05:06PM 32.5558 -84.5981 239° Southwest  Level Estimated
05:07PM 32.5438 -84.7027 157° South  Level Estimated
05:08PM 32.5317 -84.8072 157° South  Level Estimated
05:09PM 32.5195 -84.9118 157° South  Level Estimated
05:10PM 32.5000 -84.9333 157° South  Level FlightAware Approximate
05:11PM 32.5163 -84.9389 157° South  Level Estimated
05:12PM 32.5163 -84.9389 157° South  Level Estimated
05:13PM 32.5163 -84.9389 157° South  Level Estimated
05:14PM 32.5163 -84.9389 157° South  Level Estimated
05:15PM 32.5163 -84.9389 157° South  Level Estimated
05:16PM 32.5163 -84.9389 157° South  Level Estimated
05:17PM 32.5163 -84.9389 157° South  Level Estimated
05:18PM 32.5163 -84.9389 157° South  Level Estimated
05:19PM 32.5163 -84.9389 157° South  Level Estimated
05:20PM 32.5163 -84.9389 157° South  Level Estimated
05:21PM 32.5163 -84.9389 157° South  Level Estimated
05:22PM 32.5163 -84.9389 157° South  Level Estimated
05:23PM 32.5163 -84.9389 157° South  Level Estimated
05:24PM 32.5163 -84.9389 157° South  Level Estimated
05:25PM 32.5163 -84.9389 157° South  Level Estimated
05:26PM 32.5163 -84.9389 157° South  Level Estimated
05:27PM 32.5163 -84.9389 157° South  Level Estimated
05:28PM 32.5163 -84.9389 157° South  Level Estimated